Time;durP1;ratioP1;P1;durP2;ratioP2;P2;SDS_P1;SDS_P2;PMS_P1;PMS_P2;Temp;Humidity;BMP_temperature;BMP_pressure;BME280_temperature;BME280_humidity;BME280_pressure;Samples;Min_cycle;Max_cycle;Signal;HPM_P1;HPM_P2
2024/02/10 00:00:56;;;;;;;21.83;11.30;;;;;;;3.44;100.00;98843.44;4915054;29;20044;-75
2024/02/10 00:03:23;;;;;;;24.85;10.55;;;;;;;3.44;100.00;98840.81;4911922;29;20035;-75
2024/02/10 00:05:48;;;;;;;24.98;11.88;;;;;;;3.45;100.00;98842.38;4930938;28;20035;-76
2024/02/10 00:08:14;;;;;;;20.52;10.18;;;;;;;3.45;100.00;98837.09;4914880;29;20095;-74
2024/02/10 00:10:41;;;;;;;20.45;10.00;;;;;;;3.45;100.00;98837.09;4914399;29;20036;-76
2024/02/10 00:13:07;;;;;;;23.25;11.48;;;;;;;3.46;100.00;98844.00;4920232;29;20450;-75
2024/02/10 00:15:33;;;;;;;23.65;11.65;;;;;;;3.45;100.00;98836.28;4924008;29;20810;-74
2024/02/10 00:17:58;;;;;;;23.27;11.90;;;;;;;3.47;100.00;98844.78;4920703;29;20075;-73
2024/02/10 00:20:25;;;;;;;20.83;10.13;;;;;;;3.46;100.00;98844.00;4915727;29;20071;-74
2024/02/10 00:22:52;;;;;;;23.77;10.05;;;;;;;3.45;100.00;98842.38;4919407;29;20036;-74
2024/02/10 00:25:21;;;;;;;19.23;8.95;;;;;;;3.45;100.00;98842.38;4924674;29;20063;-74
2024/02/10 00:27:47;;;;;;;24.92;10.35;;;;;;;3.45;100.00;98834.44;4921106;29;20035;-73
2024/02/10 00:30:14;;;;;;;22.42;10.93;;;;;;;3.46;100.00;98838.69;4908003;29;20493;-73
2024/02/10 00:32:40;;;;;;;24.23;10.77;;;;;;;3.47;100.00;98840.28;4913296;29;20036;-72
2024/02/10 00:35:06;;;;;;;22.13;11.30;;;;;;;3.43;100.00;98836.56;4916847;29;20037;-74
2024/02/10 00:37:32;;;;;;;24.17;10.25;;;;;;;3.44;100.00;98835.50;4921341;29;20441;-73
2024/02/10 00:40:00;;;;;;;21.45;10.25;;;;;;;3.44;100.00;98834.72;4936860;28;20043;-72
2024/02/10 00:42:28;;;;;;;22.33;10.43;;;;;;;3.43;100.00;98831.28;4915130;29;20036;-72
2024/02/10 00:45:03;;;;;;;20.33;9.73;;;;;;;3.45;100.00;98828.34;4911915;29;20150;-72
2024/02/10 00:47:28;;;;;;;19.83;9.82;;;;;;;3.43;100.00;98828.63;4916684;29;20044;-73
2024/02/10 00:50:00;;;;;;;22.83;10.77;;;;;;;3.43;100.00;98825.19;4913393;29;20040;-72
2024/02/10 00:52:26;;;;;;;22.95;10.48;;;;;;;3.42;100.00;98832.34;4933311;28;20044;-73
2024/02/10 00:54:52;;;;;;;21.08;10.35;;;;;;;3.42;100.00;98832.34;4935767;28;20421;-73
2024/02/10 00:57:17;;;;;;;25.13;11.05;;;;;;;3.43;100.00;98835.78;4927291;29;20027;-74
2024/02/10 00:59:44;;;;;;;25.00;12.52;;;;;;;3.45;100.00;98841.59;4939253;28;20039;-72
2024/02/10 01:02:17;;;;;;;24.92;11.63;;;;;;;3.47;100.00;98847.44;4900431;29;20420;-73
2024/02/10 01:04:44;;;;;;;23.27;11.13;;;;;;;3.47;100.00;98845.56;4904238;29;20140;-73
2024/02/10 01:07:10;;;;;;;25.73;11.38;;;;;;;3.49;100.00;98843.44;4914445;29;20036;-73
2024/02/10 01:09:40;;;;;;;24.88;10.32;;;;;;;3.50;100.00;98849.53;4913941;29;20166;-75
2024/02/10 01:12:06;;;;;;;21.38;9.65;;;;;;;3.50;100.00;98850.31;4910038;29;20044;-75
2024/02/10 01:14:32;;;;;;;23.38;10.30;;;;;;;3.51;100.00;98851.91;4921480;29;20042;-74
2024/02/10 01:16:58;;;;;;;;;;;;;;;3.51;100.00;98845.81;4909788;29;20039;-73
2024/02/10 01:19:27;;;;;;;20.55;10.30;;;;;;;3.51;100.00;98846.59;4919274;29;20384;-73
2024/02/10 01:21:55;;;;;;;19.63;9.60;;;;;;;3.53;100.00;98851.66;4914602;29;20176;-75
2024/02/10 01:24:22;;;;;;;21.40;9.27;;;;;;;3.54;100.00;98851.38;4919382;29;20492;-74
2024/02/10 01:26:49;;;;;;;25.60;11.30;;;;;;;3.53;100.00;98855.09;4932512;28;20074;-75
2024/02/10 01:29:15;;;;;;;25.20;11.80;;;;;;;3.55;100.00;98849.53;4923459;29;20039;-74
2024/02/10 01:31:42;;;;;;;28.20;11.77;;;;;;;3.54;100.00;98851.38;4898875;29;20035;-74
2024/02/10 01:34:08;;;;;;;23.15;10.45;;;;;;;3.56;100.00;98845.81;4897184;29;20046;-75
2024/02/10 01:36:34;;;;;;;21.63;10.13;;;;;;;3.56;100.00;98845.81;4916587;29;20089;-74
2024/02/10 01:39:01;;;;;;;26.33;11.13;;;;;;;3.55;100.00;98845.00;4918801;29;20047;-74
2024/02/10 01:41:30;;;;;;;26.75;11.10;;;;;;;3.54;100.00;98840.78;4918475;29;20048;-73
2024/02/10 01:43:55;;;;;;;20.85;8.95;;;;;;;3.55;100.00;98847.66;4929855;28;20044;-74
2024/02/10 01:46:22;;;;;;;23.60;10.90;;;;;;;3.58;100.00;98851.59;4915037;29;20066;-74
2024/02/10 01:48:49;;;;;;;22.10;9.95;;;;;;;3.58;100.00;98864.84;4913459;29;20046;-75
2024/02/10 01:51:19;;;;;;;24.85;10.55;;;;;;;3.60;100.00;98869.91;4904247;29;20069;-73
2024/02/10 01:53:45;;;;;;;22.67;10.98;;;;;;;3.61;100.00;98876.78;4912036;29;20110;-74
2024/02/10 01:56:11;;;;;;;;;;;;;;;3.63;100.00;98864.03;4889808;29;20541;-74
2024/02/10 01:58:41;;;;;;;22.98;10.43;;;;;;;3.65;100.00;98856.63;4918222;28;19965;-74
2024/02/10 02:01:10;;;;;;;28.85;12.15;;;;;;;3.65;100.00;98851.31;4895337;29;20113;-74
2024/02/10 02:03:35;;;;;;;27.75;11.32;;;;;;;3.66;100.00;98850.25;4923469;29;20162;-74
2024/02/10 02:06:01;;;;;;;29.83;12.68;;;;;;;3.65;100.00;98853.97;4918565;29;20044;-74
2024/02/10 02:08:27;;;;;;;25.85;11.50;;;;;;;3.67;100.00;98859.81;4921030;29;20737;-74
2024/02/10 02:10:53;;;;;;;24.55;10.60;;;;;;;3.67;100.00;98860.59;4922035;29;20378;-74
2024/02/10 02:13:22;;;;;;;23.75;10.57;;;;;;;3.67;100.00;98865.91;4930195;28;20108;-75
2024/02/10 02:15:49;;;;;;;27.88;11.63;;;;;;;3.68;100.00;98864.81;4912493;29;20131;-74
2024/02/10 02:18:14;;;;;;;28.50;11.35;;;;;;;3.67;100.00;98862.47;4915443;29;20043;-75
2024/02/10 02:20:46;;;;;;;25.10;11.35;;;;;;;3.68;100.00;98864.03;4912335;29;20044;-75
2024/02/10 02:23:18;;;;;;;26.23;11.75;;;;;;;3.67;100.00;98860.59;4932135;28;20489;-73
2024/02/10 02:25:48;;;;;;;23.67;10.23;;;;;;;3.68;100.00;98856.09;4918039;29;20126;-74
2024/02/10 02:28:15;;;;;;;28.00;11.35;;;;;;;3.69;100.00;98857.69;4888345;29;20066;-73
2024/02/10 02:30:41;;;;;;;24.10;9.70;;;;;;;3.67;100.00;98860.59;4926387;29;20115;-74
2024/02/10 02:33:10;;;;;;;27.08;10.93;;;;;;;3.68;100.00;98850.81;4906576;29;20484;-74
2024/02/10 02:35:40;;;;;;;27.02;10.95;;;;;;;3.69;100.00;98853.19;4919783;29;20153;-74
2024/02/10 02:38:06;;;;;;;27.83;11.30;;;;;;;3.70;100.00;98862.69;4919223;29;20036;-74
2024/02/10 02:40:33;;;;;;;32.33;12.02;;;;;;;3.71;100.00;98866.94;4914628;29;20413;-74
2024/02/10 02:43:02;;;;;;;27.38;11.30;;;;;;;3.70;100.00;98854.75;4918679;29;20112;-73
2024/02/10 02:45:29;;;;;;;27.48;11.43;;;;;;;3.71;100.00;98847.59;4926981;29;20048;-74
2024/02/10 02:48:01;;;;;;;29.05;11.55;;;;;;;3.69;100.00;98845.22;4924350;29;20103;-75
2024/02/10 02:50:28;;;;;;;32.47;11.55;;;;;;;3.70;100.00;98853.97;4899634;29;20111;-74
2024/02/10 02:52:57;;;;;;;25.13;10.68;;;;;;;3.70;100.00;98854.75;4893518;29;20454;-75
2024/02/10 02:55:24;;;;;;;29.33;12.45;;;;;;;3.69;100.00;98857.69;4915633;29;20560;-78
2024/02/10 02:57:51;;;;;;;30.17;11.52;;;;;;;3.69;100.00;98852.38;4930682;29;20040;-76
2024/02/10 03:00:17;;;;;;;28.98;11.82;;;;;;;3.69;100.00;98850.53;4925741;29;20099;-74
2024/02/10 03:02:44;;;;;;;30.05;10.40;;;;;;;3.70;100.00;98846.81;4915438;29;20059;-74
2024/02/10 03:05:10;;;;;;;26.77;11.32;;;;;;;3.70;100.00;98852.09;4923374;29;20515;-73
2024/02/10 03:07:40;;;;;;;29.20;11.57;;;;;;;3.69;100.00;98841.78;4910526;29;20046;-74
2024/02/10 03:10:07;;;;;;;30.05;12.88;;;;;;;3.69;100.00;98842.59;4920468;29;20051;-74
2024/02/10 03:12:33;;;;;;;30.60;11.90;;;;;;;3.67;100.00;98833.34;4923601;29;20060;-75
2024/02/10 03:14:59;;;;;;;22.77;10.07;;;;;;;3.66;100.00;98837.03;4926152;29;20732;-75
2024/02/10 03:17:30;;;;;;;28.67;11.32;;;;;;;3.65;100.00;98844.19;4926995;28;20036;-74
2024/02/10 03:20:00;;;;;;;29.63;11.40;;;;;;;3.63;100.00;98838.38;4915256;29;20092;-74
2024/02/10 03:22:26;;;;;;;27.33;10.75;;;;;;;3.62;100.00;98836.00;4914702;29;20047;-73
2024/02/10 03:24:54;;;;;;;25.45;10.18;;;;;;;3.63;100.00;98841.00;4905393;29;20040;-76
2024/02/10 03:27:20;;;;;;;27.00;12.13;;;;;;;3.61;100.00;98840.50;4914321;29;20044;-74
2024/02/10 03:29:47;;;;;;;27.90;11.32;;;;;;;3.61;100.00;98837.84;4912647;29;20039;-74
2024/02/10 03:32:13;;;;;;;20.70;10.02;;;;;;;3.60;100.00;98838.13;4926343;28;20044;-73
2024/02/10 03:34:39;;;;;;;22.70;9.82;;;;;;;3.58;100.00;98840.22;4913529;29;20197;-73
2024/02/10 03:37:05;;;;;;;21.05;9.77;;;;;;;3.58;100.00;98856.13;4921655;29;20052;-74
2024/02/10 03:39:32;;;;;;;19.25;8.52;;;;;;;3.54;100.00;98850.59;4902061;29;20832;-74
2024/02/10 03:41:57;;;;;;;24.77;9.68;;;;;;;3.53;100.00;98849.00;4914881;29;20032;-74
2024/02/10 03:44:23;;;;;;;22.38;9.48;;;;;;;3.52;100.00;98853.50;4918158;29;20043;-74
2024/02/10 03:46:50;;;;;;;21.00;9.32;;;;;;;3.52;100.00;98858.78;4913504;29;20071;-75
2024/02/10 03:49:16;;;;;;;18.90;9.77;;;;;;;3.51;100.00;98859.84;4910033;29;20108;-75
2024/02/10 03:51:41;;;;;;;20.20;8.77;;;;;;;3.51;100.00;98859.84;4902868;29;20039;-73
2024/02/10 03:54:09;;;;;;;20.75;9.90;;;;;;;3.51;100.00;98857.19;4916339;29;20044;-74
2024/02/10 03:56:38;;;;;;;24.52;10.20;;;;;;;3.49;100.00;98854.03;4915346;29;20095;-73
2024/02/10 03:59:04;;;;;;;20.25;8.77;;;;;;;3.50;100.00;98860.09;4918299;29;20028;-72
2024/02/10 04:01:30;;;;;;;21.20;10.25;;;;;;;3.48;100.00;98857.75;4926184;29;20046;-73
2024/02/10 04:03:55;;;;;;;27.35;11.18;;;;;;;3.47;100.00;98850.88;4935061;28;20039;-72
2024/02/10 04:06:23;;;;;;;24.40;10.18;;;;;;;3.48;100.00;98836.56;4932369;28;20040;-74
2024/02/10 04:08:49;;;;;;;23.05;10.00;;;;;;;3.50;100.00;98845.03;4920825;29;20046;-74
2024/02/10 04:11:18;;;;;;;25.52;11.60;;;;;;;3.47;100.00;98850.88;4920764;29;20028;-73
2024/02/10 04:13:45;;;;;;;23.23;9.40;;;;;;;3.47;100.00;98840.28;4921636;29;20721;-73
2024/02/10 04:16:12;;;;;;;25.40;10.68;;;;;;;3.46;100.00;98859.88;4923102;29;20071;-73
2024/02/10 04:18:39;;;;;;;25.95;9.65;;;;;;;3.47;100.00;98855.38;4927739;28;20188;-75
2024/02/10 04:21:06;;;;;;;24.88;10.77;;;;;;;3.43;100.00;98847.16;4916815;29;20043;-74
2024/02/10 04:23:33;;;;;;;29.77;11.20;;;;;;;3.42;100.00;98850.88;4912667;29;20032;-74
2024/02/10 04:26:05;;;;;;;30.77;12.38;;;;;;;3.42;100.00;98850.88;4933070;28;20545;-73
2024/02/10 04:28:31;;;;;;;32.67;12.70;;;;;;;3.41;100.00;98857.22;4912558;29;20517;-74
2024/02/10 04:30:57;;;;;;;28.33;11.77;;;;;;;3.42;100.00;98853.50;4915590;29;20142;-75
2024/02/10 04:33:23;;;;;;;30.50;11.20;;;;;;;3.39;100.00;98854.06;4927888;28;20031;-73
2024/02/10 04:35:49;;;;;;;28.80;12.10;;;;;;;3.40;100.00;98858.28;4917485;29;20039;-75
2024/02/10 04:38:16;;;;;;;30.15;12.30;;;;;;;3.39;100.00;98855.91;4920385;29;20578;-73
2024/02/10 04:40:42;;;;;;;28.40;11.80;;;;;;;3.38;100.00;98856.97;4916891;29;20090;-74
2024/02/10 04:43:07;;;;;;;29.73;11.18;;;;;;;3.36;100.00;98854.59;4927052;29;20441;-75
2024/02/10 04:45:35;;;;;;;32.00;12.88;;;;;;;3.34;100.00;98856.72;4900932;29;20035;-73
2024/02/10 04:48:03;;;;;;;26.98;10.95;;;;;;;3.34;100.00;98855.94;4926830;29;20091;-73
2024/02/10 04:50:29;;;;;;;29.17;12.30;;;;;;;3.33;100.00;98859.63;4921486;29;20047;-72
2024/02/10 04:52:55;;;;;;;;;;;;;;;3.32;100.00;98866.78;4922282;29;20035;-73
2024/02/10 04:55:21;;;;;;;20.73;9.13;;;;;;;3.31;100.00;98857.22;4912599;29;19919;-73
2024/02/10 04:57:49;;;;;;;29.58;12.30;;;;;;;3.33;100.00;98870.22;4906076;29;20074;-72
2024/02/10 05:00:15;;;;;;;28.33;10.30;;;;;;;3.34;100.00;98864.66;4916476;29;20040;-74
2024/02/10 05:02:45;;;;;;;28.52;11.23;;;;;;;3.36;100.00;98864.38;4896671;29;20126;-72
2024/02/10 05:05:15;;;;;;;24.90;10.13;;;;;;;3.38;100.00;98868.31;4923199;29;20126;-75
2024/02/10 05:07:45;;;;;;;31.02;11.55;;;;;;;3.40;100.00;98871.53;4924434;29;20047;-74
2024/02/10 05:10:16;;;;;;;27.88;11.18;;;;;;;3.42;100.00;98879.97;4918696;29;20493;-74
2024/02/10 05:12:46;;;;;;;30.83;12.30;;;;;;;3.42;100.00;98861.47;4920206;29;20063;-73
2024/02/10 05:15:18;;;;;;;29.00;12.50;;;;;;;3.45;100.00;98862.75;4919408;29;20043;-73
2024/02/10 05:17:49;;;;;;;27.83;11.52;;;;;;;3.47;100.00;98861.44;4914231;29;20382;-73
2024/02/10 05:20:19;;;;;;;27.60;11.23;;;;;;;3.47;100.00;98866.75;4929943;28;20666;-75
2024/02/10 05:22:49;;;;;;;32.30;12.85;;;;;;;3.49;100.00;98874.41;4920636;29;20106;-73
2024/02/10 05:25:21;;;;;;;30.05;11.85;;;;;;;3.50;100.00;98876.78;4914188;29;20183;-73
2024/02/10 05:27:48;;;;;;;30.88;11.77;;;;;;;3.52;100.00;98874.69;4914938;29;20098;-73
2024/02/10 05:30:19;;;;;;;37.97;14.43;;;;;;;3.53;100.00;98881.56;4915287;29;20047;-74
2024/02/10 05:32:45;;;;;;;36.55;12.93;;;;;;;3.55;100.00;98868.84;4918080;29;20429;-74
2024/02/10 05:35:18;;;;;;;;;;;;;;;3.58;100.00;98877.28;4916638;29;20501;-75
2024/02/10 05:37:59;;;;;;;33.90;12.32;;;;;;;3.59;100.00;98884.16;4923028;29;20397;-73
2024/02/10 05:40:26;;;;;;;28.73;10.68;;;;;;;3.61;100.00;98882.06;4927760;28;20464;-74
2024/02/10 05:42:52;;;;;;;30.25;11.75;;;;;;;3.61;100.00;98882.84;4933954;28;20032;-73
2024/02/10 05:45:20;;;;;;;32.13;11.95;;;;;;;3.61;100.00;98887.34;4916539;29;20561;-73
2024/02/10 05:47:50;;;;;;;40.50;14.25;;;;;;;3.62;100.00;98883.66;4928226;28;20040;-74
2024/02/10 05:50:18;;;;;;;36.03;12.38;;;;;;;3.63;100.00;98879.94;4902329;29;20463;-73
2024/02/10 05:52:49;;;;;;;33.40;11.93;;;;;;;3.64;100.00;98871.72;4923919;29;20070;-74
2024/02/10 05:55:26;;;;;;;32.53;12.82;;;;;;;3.66;100.00;98879.38;4896770;29;20123;-73
2024/02/10 05:58:01;;;;;;;35.13;12.25;;;;;;;3.68;100.00;98877.28;4929039;28;20040;-73
2024/02/10 06:00:27;;;;;;;35.70;13.20;;;;;;;3.69;100.00;98884.16;4919744;29;20113;-73
2024/02/10 06:02:54;;;;;;;34.33;12.10;;;;;;;3.70;100.00;98891.03;4912230;29;20115;-73
2024/02/10 06:05:19;;;;;;;33.08;12.48;;;;;;;3.68;100.00;98878.06;4917892;29;20052;-73
2024/02/10 06:07:45;;;;;;;35.45;12.70;;;;;;;3.68;100.00;98886.00;4905355;29;20035;-73
2024/02/10 06:10:13;;;;;;;32.15;11.57;;;;;;;3.69;100.00;98889.44;4920129;29;20039;-73
2024/02/10 06:12:40;;;;;;;28.65;11.95;;;;;;;3.68;100.00;98888.66;4917037;29;20288;-75
2024/02/10 06:15:09;;;;;;;33.03;12.70;;;;;;;3.69;100.00;98882.28;4922290;29;20040;-74
2024/02/10 06:17:39;;;;;;;29.63;11.50;;;;;;;3.70;100.00;98880.44;4913116;29;20036;-73
2024/02/10 06:20:10;;;;;;;38.30;13.18;;;;;;;3.71;100.00;98888.09;4934633;28;20086;-73
2024/02/10 06:22:36;;;;;;;28.73;11.30;;;;;;;3.72;100.00;98888.91;4918140;29;20504;-74
2024/02/10 06:25:02;;;;;;;31.48;11.55;;;;;;;3.73;100.00;98901.09;4916746;29;20043;-73
2024/02/10 06:27:29;;;;;;;33.65;12.32;;;;;;;3.73;100.00;98901.09;4924136;29;20139;-74
2024/02/10 06:29:55;;;;;;;35.00;14.05;;;;;;;3.75;100.00;98904.25;4903517;29;20067;-73
2024/02/10 06:32:21;;;;;;;37.45;13.93;;;;;;;3.74;100.00;98903.47;4933335;28;20544;-75
2024/02/10 06:34:51;;;;;;;37.42;12.65;;;;;;;3.76;100.00;98900.53;4934166;28;20052;-74
2024/02/10 06:37:20;;;;;;;34.72;13.15;;;;;;;3.77;100.00;98902.91;4928180;29;20042;-73
2024/02/10 06:39:46;;;;;;;38.35;12.98;;;;;;;3.77;100.00;98897.63;4921453;29;20060;-74
2024/02/10 06:42:13;;;;;;;46.42;16.02;;;;;;;3.80;100.00;98901.59;4918063;29;20060;-76
2024/02/10 06:44:40;;;;;;;38.28;12.55;;;;;;;3.81;100.00;98897.88;4918335;29;20403;-74
2024/02/10 06:47:07;;;;;;;41.17;13.93;;;;;;;3.81;100.00;98903.97;4934708;28;20043;-73
2024/02/10 06:49:34;;;;;;;38.22;13.15;;;;;;;3.83;100.00;98895.75;4917225;29;20062;-73
2024/02/10 06:52:03;;;;;;;39.75;13.10;;;;;;;3.85;100.00;98898.91;4926790;29;20813;-74
2024/02/10 06:54:29;;;;;;;44.83;14.55;;;;;;;3.86;100.00;98902.34;4900176;29;20155;-74
2024/02/10 06:56:57;;;;;;;38.42;13.70;;;;;;;3.88;100.00;98895.75;4902539;29;20460;-75
2024/02/10 06:59:25;;;;;;;40.40;13.90;;;;;;;3.90;100.00;98904.19;4924564;29;20035;-73
2024/02/10 07:01:54;;;;;;;41.95;13.82;;;;;;;3.93;100.00;98908.97;4919507;29;20024;-73
2024/02/10 07:04:23;;;;;;;43.80;14.60;;;;;;;3.94;100.00;98907.91;4909145;29;20568;-73
2024/02/10 07:06:57;;;;;;;46.10;14.80;;;;;;;3.96;100.00;98903.13;4903946;29;20047;-75
2024/02/10 07:09:23;;;;;;;43.85;13.95;;;;;;;3.99;100.00;98913.16;4929564;28;20493;-73
2024/02/10 07:11:51;;;;;;;48.92;15.45;;;;;;;4.00;100.00;98919.28;4930018;28;20099;-76
2024/02/10 07:14:18;;;;;;;42.03;13.77;;;;;;;4.02;100.00;98922.44;4932457;28;20074;-74
2024/02/10 07:16:45;;;;;;;51.63;15.70;;;;;;;4.03;100.00;98922.16;4911797;29;20064;-74
2024/02/10 07:19:11;;;;;;;42.85;13.57;;;;;;;4.05;100.00;98925.34;4912512;29;20047;-73
2024/02/10 07:21:38;;;;;;;47.38;14.98;;;;;;;4.08;100.00;98924.00;4917055;29;20091;-73
2024/02/10 07:24:07;;;;;;;44.13;14.63;;;;;;;4.10;100.00;98920.03;4906776;29;20039;-73
2024/02/10 07:26:34;;;;;;;46.25;14.45;;;;;;;4.15;100.00;98929.03;4919754;29;20062;-73
2024/02/10 07:29:01;;;;;;;43.60;14.95;;;;;;;4.19;100.00;98927.41;4920112;29;20036;-74
2024/02/10 07:31:27;;;;;;;46.25;15.48;;;;;;;4.22;100.00;98932.16;4916180;29;20036;-75
2024/02/10 07:33:58;;;;;;;43.10;14.60;;;;;;;4.26;100.00;98927.91;4909457;29;20358;-74
2024/02/10 07:36:34;;;;;;;49.03;14.55;;;;;;;4.30;100.00;98934.25;4920710;29;20637;-75
2024/02/10 07:39:07;;;;;;;46.42;14.80;;;;;;;4.33;100.00;98931.84;4915641;29;20027;-74
2024/02/10 07:41:40;;;;;;;42.83;14.88;;;;;;;4.38;100.00;98944.28;4914479;29;20043;-73
2024/02/10 07:44:12;;;;;;;40.95;13.85;;;;;;;4.41;100.00;98943.75;4917465;29;20028;-74
2024/02/10 07:46:38;;;;;;;36.60;13.55;;;;;;;4.45;100.00;98950.06;4913486;29;20050;-74
2024/02/10 07:49:07;;;;;;;42.85;15.07;;;;;;;4.46;100.00;98956.97;4928474;29;20051;-74
2024/02/10 07:51:33;;;;;;;38.00;14.13;;;;;;;4.49;100.00;98960.94;4932792;28;20047;-74
2024/02/10 07:53:59;;;;;;;42.67;14.52;;;;;;;4.52;100.00;98961.16;4933264;28;20050;-76
2024/02/10 07:56:28;;;;;;;39.60;13.90;;;;;;;4.54;100.00;98963.53;4917538;29;20036;-74
2024/02/10 07:58:59;;;;;;;40.83;14.98;;;;;;;4.56;100.00;98972.03;4919107;29;20031;-74
2024/02/10 08:01:26;;;;;;;35.97;13.43;;;;;;;4.58;100.00;98975.19;4904549;29;20452;-74
2024/02/10 08:03:54;;;;;;;40.20;14.73;;;;;;;4.60;100.00;98984.47;4914792;29;20027;-74
2024/02/10 08:06:26;;;;;;;41.47;14.45;;;;;;;4.61;100.00;98980.75;4921150;29;20150;-75
2024/02/10 08:08:58;;;;;;;42.67;14.10;;;;;;;4.63;100.00;98978.63;4905915;29;20028;-74
2024/02/10 08:11:28;;;;;;;39.95;14.13;;;;;;;4.64;100.00;98984.72;4911119;29;20031;-74
2024/02/10 08:13:54;;;;;;;39.13;13.80;;;;;;;4.68;100.00;98984.97;4929120;29;20132;-73
2024/02/10 08:16:21;;;;;;;39.25;15.10;;;;;;;4.69;100.00;98987.34;4938443;28;20047;-74
2024/02/10 08:18:50;;;;;;;40.80;13.98;;;;;;;4.72;100.00;98991.31;4913762;29;20052;-76
2024/02/10 08:21:19;;;;;;;41.95;14.88;;;;;;;4.72;100.00;98992.09;4922386;29;20036;-74
2024/02/10 08:23:49;;;;;;;35.72;13.48;;;;;;;4.74;100.00;98995.28;4915119;29;20200;-74
2024/02/10 08:26:19;;;;;;;37.47;13.90;;;;;;;4.78;100.00;99003.47;4926419;29;20054;-74
2024/02/10 08:28:51;;;;;;;44.50;14.13;;;;;;;4.79;100.00;99011.16;4904843;29;20441;-74
2024/02/10 08:31:20;;;;;;;41.30;14.50;;;;;;;4.82;100.00;99007.97;4937036;23;20201;-70
2024/02/10 08:33:48;;;;;;;35.97;14.38;;;;;;;4.82;100.00;99012.47;4917471;29;20043;-71
2024/02/10 08:36:15;;;;;;;38.55;13.70;;;;;;;4.84;100.00;99015.66;4926598;29;20082;-70
2024/02/10 08:38:41;;;;;;;42.33;14.38;;;;;;;4.85;100.00;99018.00;4920164;29;20036;-69
2024/02/10 08:41:11;;;;;;;38.85;15.52;;;;;;;4.88;100.00;99022.00;4920777;29;20049;-70
2024/02/10 08:43:47;;;;;;;41.72;16.08;;;;;;;4.88;100.00;99029.97;4920372;29;20516;-70
2024/02/10 08:46:16;;;;;;;38.83;13.48;;;;;;;4.90;100.00;99028.59;4923169;29;20043;-72
2024/02/10 08:48:42;;;;;;;49.63;15.55;;;;;;;4.91;100.00;99029.41;4924369;29;20046;-70
2024/02/10 08:51:12;;;;;;;45.50;15.50;;;;;;;4.93;100.00;99035.22;4920702;29;20107;-70
2024/02/10 08:53:44;;;;;;;44.03;15.10;;;;;;;4.96;100.00;99029.38;4904714;29;20118;-70
2024/02/10 08:56:13;;;;;;;40.65;14.30;;;;;;;4.97;100.00;99041.56;4909033;29;20036;-70
2024/02/10 08:58:40;;;;;;;38.22;14.50;;;;;;;4.98;100.00;99052.97;4920779;29;20130;-70
2024/02/10 09:01:15;;;;;;;43.30;15.40;;;;;;;5.01;100.00;99052.41;4920725;29;20048;-70
2024/02/10 09:03:50;;;;;;;38.58;14.15;;;;;;;5.03;100.00;99056.41;4906700;29;20524;-69
2024/02/10 09:06:22;;;;;;;45.95;15.38;;;;;;;5.03;100.00;99064.34;4920867;29;20044;-71
2024/02/10 09:08:50;;;;;;;39.40;14.95;;;;;;;5.04;100.00;99059.84;4920568;29;20067;-70
2024/02/10 09:11:19;;;;;;;44.67;15.02;;;;;;;5.07;100.00;99062.72;4921719;29;20040;-71
2024/02/10 09:13:45;;;;;;;46.80;14.93;;;;;;;5.08;100.00;99067.00;4921490;29;20149;-70
2024/02/10 09:16:12;;;;;;;48.08;14.52;;;;;;;5.08;100.00;99067.00;4923782;29;20059;-71
2024/02/10 09:18:39;;;;;;;;;;;;;;;5.12;100.00;99062.69;4917575;29;20044;-70
2024/02/10 09:21:05;;;;;;;51.38;14.68;;;;;;;5.14;100.00;99067.72;4922368;29;19914;-70
2024/02/10 09:23:31;;;;;;;49.08;15.80;;;;;;;5.16;100.00;99071.72;4922686;29;20034;-70
2024/02/10 09:25:56;;;;;;;49.20;16.40;;;;;;;5.19;100.00;99065.84;4921269;29;20106;-70
2024/02/10 09:28:24;;;;;;;53.92;15.95;;;;;;;5.24;100.00;99077.50;4919809;29;20817;-70
2024/02/10 09:30:49;;;;;;;48.78;15.98;;;;;;;5.25;100.00;99074.56;4921082;29;20047;-68
2024/02/10 09:33:26;;;;;;;43.90;16.10;;;;;;;5.29;100.00;99080.94;4923326;29;20094;-70
2024/02/10 09:35:52;;;;;;;47.03;15.43;;;;;;;5.31;100.00;99086.75;4924726;29;20058;-70
2024/02/10 09:38:22;;;;;;;51.80;14.70;;;;;;;5.34;100.00;99088.84;4925213;29;20493;-70
2024/02/10 09:40:56;;;;;;;51.33;16.98;;;;;;;5.36;100.00;99092.03;4924783;29;20107;-70
2024/02/10 09:43:31;;;;;;;48.00;15.57;;;;;;;5.40;100.00;99084.28;4914248;29;20143;-69
2024/02/10 09:46:08;;;;;;;48.28;15.23;;;;;;;5.44;100.00;99093.31;4918984;29;20039;-70
2024/02/10 09:49:06;;;;;;;48.70;15.13;;;;;;;5.48;100.00;99078.41;4919341;29;20675;-69
2024/02/10 09:51:37;;;;;;;46.03;16.48;;;;;;;5.51;100.00;99077.84;4909638;29;20051;-70
2024/02/10 09:54:05;;;;;;;50.90;15.05;;;;;;;5.54;100.00;99085.25;4919869;29;20222;-71
2024/02/10 09:56:34;;;;;;;61.83;16.05;;;;;;;5.56;100.00;99080.47;4919323;29;20484;-69
2024/02/10 09:59:00;;;;;;;50.63;15.55;;;;;;;5.62;100.00;99084.69;4906387;29;20063;-70
2024/02/10 10:01:32;;;;;;;51.90;16.08;;;;;;;5.66;100.00;99088.34;4922397;29;20036;-69
2024/02/10 10:03:59;;;;;;;47.13;15.60;;;;;;;5.66;100.00;99091.03;4917948;29;20490;-70
2024/02/10 10:06:25;;;;;;;48.85;16.35;;;;;;;5.70;100.00;99092.06;4926704;29;20031;-70
2024/02/10 10:08:51;;;;;;;50.60;15.90;;;;;;;5.74;100.00;99092.28;4909627;29;20042;-70
2024/02/10 10:11:17;;;;;;;49.50;15.93;;;;;;;5.75;100.00;99089.34;4901645;29;20135;-69
2024/02/10 10:13:42;;;;;;;52.35;15.55;;;;;;;5.79;100.00;99089.59;4902501;29;20498;-69
2024/02/10 10:16:09;;;;;;;54.70;16.15;;;;;;;5.84;100.00;99102.06;4909554;29;20039;-70
2024/02/10 10:18:35;;;;;;;52.53;16.42;;;;;;;5.84;100.00;99105.50;4909181;29;20710;-69
2024/02/10 10:21:06;;;;;;;44.67;14.98;;;;;;;5.89;100.00;99105.47;4909617;29;20046;-69
2024/02/10 10:23:35;;;;;;;42.60;14.18;;;;;;;5.94;100.00;99094.00;4925911;29;20040;-70
2024/02/10 10:26:02;;;;;;;50.10;15.85;;;;;;;5.99;100.00;99101.94;4920525;29;20132;-72
2024/02/10 10:28:28;;;;;;;;;;;;;;;6.04;100.00;99093.94;4907290;29;20044;-70
2024/02/10 10:30:55;;;;;;;46.90;14.52;;;;;;;6.09;100.00;99104.50;4921705;29;20385;-69
2024/02/10 10:33:22;;;;;;;44.72;14.93;;;;;;;6.17;100.00;99106.59;4925316;29;20056;-70
2024/02/10 10:35:48;;;;;;;45.92;15.02;;;;;;;6.23;100.00;99097.50;4919103;29;20043;-70
2024/02/10 10:38:21;;;;;;;41.90;13.95;;;;;;;6.27;100.00;99098.50;4925279;29;20163;-70
2024/02/10 10:40:51;;;;;;;38.97;14.45;;;;;;;6.31;100.00;99096.09;4919273;29;20035;-71
2024/02/10 10:43:19;;;;;;;39.88;14.43;;;;;;;6.36;100.00;99087.25;4919719;29;20032;-71
2024/02/10 10:45:46;;;;;;;41.05;14.65;;;;;;;6.42;100.00;99086.91;4917904;29;20079;-72
2024/02/10 10:48:12;;;;;;;40.15;14.18;;;;;;;6.47;100.00;99088.72;4918576;29;20045;-71
2024/02/10 10:50:37;;;;;;;38.15;14.18;;;;;;;6.50;100.00;99086.31;4924663;29;20051;-71
2024/02/10 10:53:11;;;;;;;47.60;14.25;;;;;;;6.54;100.00;99089.97;4925261;29;20031;-69
2024/02/10 10:55:45;;;;;;;40.47;13.35;;;;;;;6.61;100.00;99099.47;4921899;29;20078;-69
2024/02/10 10:58:18;;;;;;;40.50;14.60;;;;;;;6.55;100.00;99080.91;4920827;29;20076;-70
2024/02/10 11:00:46;;;;;;;40.35;14.85;;;;;;;6.57;100.00;99078.00;4908526;29;20036;-70
2024/02/10 11:03:14;;;;;;;42.97;14.70;;;;;;;6.58;100.00;99079.56;4924138;29;20086;-71
2024/02/10 11:05:42;;;;;;;41.92;14.45;;;;;;;6.59;100.00;99086.47;4923687;29;20032;-70
2024/02/10 11:08:13;;;;;;;42.72;14.70;;;;;;;6.61;100.00;99089.63;4921780;29;20125;-71
2024/02/10 11:10:48;;;;;;;36.17;14.88;;;;;;;6.64;100.00;99090.94;4906407;29;20040;-70
2024/02/10 11:13:22;;;;;;;37.15;14.05;;;;;;;6.65;100.00;99095.19;4932801;29;20039;-69
2024/02/10 11:16:13;;;;;;;37.88;15.10;;;;;;;6.68;100.00;99099.94;4921764;29;20070;-70
2024/02/10 11:18:39;;;;;;;38.55;13.43;;;;;;;6.68;100.00;99095.41;4924221;29;20032;-69
2024/02/10 11:21:21;;;;;;;38.13;14.43;;;;;;;6.70;100.00;99098.56;4927257;29;20039;-71
2024/02/10 11:24:14;;;;;;;33.85;12.98;;;;;;;6.70;100.00;99097.78;4924005;29;20525;-69